sensor_id;sensor_type;location;lat;lon;timestamp;pressure;altitude;pressure_sealevel;temperature;humidity
83183;BME280;73077;49.898;16.450;2023-11-21T00:00:41;96449.03;;;21.21;49.04
83183;BME280;73077;49.898;16.450;2023-11-21T00:03:08;96453.25;;;21.16;49.16
83183;BME280;73077;49.898;16.450;2023-11-21T00:05:34;96446.63;;;21.20;49.15
83183;BME280;73077;49.898;16.450;2023-11-21T00:08:00;96440.72;;;21.18;48.97
83183;BME280;73077;49.898;16.450;2023-11-21T00:10:26;96452.66;;;21.14;49.08
83183;BME280;73077;49.898;16.450;2023-11-21T00:12:52;96445.56;;;21.14;49.12
83183;BME280;73077;49.898;16.450;2023-11-21T00:15:20;96441.94;;;21.15;48.95
83183;BME280;73077;49.898;16.450;2023-11-21T00:17:48;96437.88;;;21.13;49.09
83183;BME280;73077;49.898;16.450;2023-11-21T00:20:14;96445.75;;;21.13;48.96
83183;BME280;73077;49.898;16.450;2023-11-21T00:22:39;96443.34;;;21.11;48.78
83183;BME280;73077;49.898;16.450;2023-11-21T00:25:06;96442.69;;;21.09;48.92
83183;BME280;73077;49.898;16.450;2023-11-21T00:27:35;96448.97;;;21.08;49.03
83183;BME280;73077;49.898;16.450;2023-11-21T00:30:03;96448.97;;;21.08;48.99
83183;BME280;73077;49.898;16.450;2023-11-21T00:32:31;96448.72;;;21.03;49.04
83183;BME280;73077;49.898;16.450;2023-11-21T00:34:57;96455.06;;;21.08;49.04
83183;BME280;73077;49.898;16.450;2023-11-21T00:37:24;96455.81;;;21.02;48.81
83183;BME280;73077;49.898;16.450;2023-11-21T00:39:51;96446.09;;;21.03;48.88
83183;BME280;73077;49.898;16.450;2023-11-21T00:42:17;96453.34;;;21.01;49.24
83183;BME280;73077;49.898;16.450;2023-11-21T00:44:44;96452.53;;;21.00;48.90
83183;BME280;73077;49.898;16.450;2023-11-21T00:47:10;96459.81;;;20.98;48.94
83183;BME280;73077;49.898;16.450;2023-11-21T00:49:35;96454.75;;;20.97;48.93
83183;BME280;73077;49.898;16.450;2023-11-21T00:52:01;96452.91;;;20.91;49.18
83183;BME280;73077;49.898;16.450;2023-11-21T00:54:29;96463.84;;;20.94;49.12
83183;BME280;73077;49.898;16.450;2023-11-21T00:56:55;96453.50;;;20.93;49.07
83183;BME280;73077;49.898;16.450;2023-11-21T00:59:23;96451.09;;;20.91;49.05
83183;BME280;73077;49.898;16.450;2023-11-21T01:01:49;96454.50;;;20.92;49.14
83183;BME280;73077;49.898;16.450;2023-11-21T01:04:14;96458.97;;;20.91;48.80
83183;BME280;73077;49.898;16.450;2023-11-21T01:06:41;96451.47;;;20.88;49.04
83183;BME280;73077;49.898;16.450;2023-11-21T01:09:08;96456.53;;;20.90;49.04
83183;BME280;73077;49.898;16.450;2023-11-21T01:11:35;96447.22;;;20.87;48.87
83183;BME280;73077;49.898;16.450;2023-11-21T01:14:03;96452.31;;;20.89;48.87
83183;BME280;73077;49.898;16.450;2023-11-21T01:16:30;96455.69;;;20.83;49.30
83183;BME280;73077;49.898;16.450;2023-11-21T01:18:59;96454.50;;;20.85;48.96
83183;BME280;73077;49.898;16.450;2023-11-21T01:21:29;96458.97;;;20.91;48.81
83183;BME280;73077;49.898;16.450;2023-11-21T01:23:56;96455.31;;;20.86;48.93
83183;BME280;73077;49.898;16.450;2023-11-21T01:26:24;96455.50;;;20.84;48.97
83183;BME280;73077;49.898;16.450;2023-11-21T01:28:51;96460.09;;;20.76;49.12
83183;BME280;73077;49.898;16.450;2023-11-21T01:31:17;96463.16;;;20.79;49.06
83183;BME280;73077;49.898;16.450;2023-11-21T01:33:43;96464.97;;;20.79;49.11
83183;BME280;73077;49.898;16.450;2023-11-21T01:36:09;96465.78;;;20.79;48.81
83183;BME280;73077;49.898;16.450;2023-11-21T01:38:35;96471.41;;;20.76;48.94
83183;BME280;73077;49.898;16.450;2023-11-21T01:41:01;96468.97;;;20.75;49.03
83183;BME280;73077;49.898;16.450;2023-11-21T01:43:29;96463.69;;;20.75;49.14
83183;BME280;73077;49.898;16.450;2023-11-21T01:45:55;96464.53;;;20.75;48.92
83183;BME280;73077;49.898;16.450;2023-11-21T01:48:23;96468.34;;;20.73;48.81
83183;BME280;73077;49.898;16.450;2023-11-21T01:50:49;96470.38;;;20.71;48.91
83183;BME280;73077;49.898;16.450;2023-11-21T01:53:16;96468.72;;;20.70;49.15
83183;BME280;73077;49.898;16.450;2023-11-21T01:55:42;96473.38;;;20.68;49.13
83183;BME280;73077;49.898;16.450;2023-11-21T01:58:10;96467.31;;;20.67;48.92
83183;BME280;73077;49.898;16.450;2023-11-21T02:00:38;96467.91;;;20.69;49.04
83183;BME280;73077;49.898;16.450;2023-11-21T02:03:05;96468.13;;;20.68;49.19
83183;BME280;73077;49.898;16.450;2023-11-21T02:05:32;96455.38;;;20.65;49.08
83183;BME280;73077;49.898;16.450;2023-11-21T02:07:58;96455.59;;;20.70;49.12
83183;BME280;73077;49.898;16.450;2023-11-21T02:10:24;96455.97;;;20.60;49.15
83183;BME280;73077;49.898;16.450;2023-11-21T02:12:51;96457.94;;;20.58;49.01
83183;BME280;73077;49.898;16.450;2023-11-21T02:15:19;96461.75;;;20.55;49.18
83183;BME280;73077;49.898;16.450;2023-11-21T02:17:52;96472.09;;;20.57;49.19
83183;BME280;73077;49.898;16.450;2023-11-21T02:20:23;96461.63;;;20.64;48.96
83183;BME280;73077;49.898;16.450;2023-11-21T02:22:51;96455.97;;;20.60;49.27
83183;BME280;73077;49.898;16.450;2023-11-21T02:25:33;96466.41;;;20.53;49.13
83183;BME280;73077;49.898;16.450;2023-11-21T02:28:03;96462.53;;;20.49;49.25
83183;BME280;73077;49.898;16.450;2023-11-21T02:30:29;96465.41;;;20.54;49.12
83183;BME280;73077;49.898;16.450;2023-11-21T02:32:58;96466.03;;;20.57;49.08
83183;BME280;73077;49.898;16.450;2023-11-21T02:35:26;96460.16;;;20.54;49.11
83183;BME280;73077;49.898;16.450;2023-11-21T02:37:53;96457.94;;;20.58;49.15
83183;BME280;73077;49.898;16.450;2023-11-21T02:40:19;96465.22;;;20.56;49.10
83183;BME280;73077;49.898;16.450;2023-11-21T02:42:50;96466.19;;;20.55;49.29
83183;BME280;73077;49.898;16.450;2023-11-21T02:45:17;96469.19;;;20.52;49.09
83183;BME280;73077;49.898;16.450;2023-11-21T02:47:44;96459.91;;;20.49;49.08
83183;BME280;73077;49.898;16.450;2023-11-21T02:50:11;96467.53;;;20.44;49.17
83183;BME280;73077;49.898;16.450;2023-11-21T02:52:37;96468.38;;;20.45;49.23
83183;BME280;73077;49.898;16.450;2023-11-21T02:55:03;96466.72;;;20.44;49.19
83183;BME280;73077;49.898;16.450;2023-11-21T02:57:29;96466.50;;;20.39;49.50
83183;BME280;73077;49.898;16.450;2023-11-21T02:59:56;96465.13;;;20.43;49.23
83183;BME280;73077;49.898;16.450;2023-11-21T03:02:23;96465.72;;;20.45;49.29
83183;BME280;73077;49.898;16.450;2023-11-21T03:04:49;96464.09;;;20.44;49.13
83183;BME280;73077;49.898;16.450;2023-11-21T03:07:15;96468.31;;;20.38;49.28
83183;BME280;73077;49.898;16.450;2023-11-21T03:09:41;96465.28;;;20.41;49.16
83183;BME280;73077;49.898;16.450;2023-11-21T03:12:07;96467.06;;;20.34;49.35
83183;BME280;73077;49.898;16.450;2023-11-21T03:14:34;96463.50;;;20.42;49.42
83183;BME280;73077;49.898;16.450;2023-11-21T03:17:01;96465.44;;;20.33;49.40
83183;BME280;73077;49.898;16.450;2023-11-21T03:19:27;96468.06;;;20.33;49.36
83183;BME280;73077;49.898;16.450;2023-11-21T03:21:53;96467.06;;;20.34;49.26
83183;BME280;73077;49.898;16.450;2023-11-21T03:24:20;96463.03;;;20.32;49.47
83183;BME280;73077;49.898;16.450;2023-11-21T03:26:48;96459.97;;;20.35;49.31
83183;BME280;73077;49.898;16.450;2023-11-21T03:29:17;96457.56;;;20.33;49.07
83183;BME280;73077;49.898;16.450;2023-11-21T03:31:45;96456.13;;;20.31;49.29
83183;BME280;73077;49.898;16.450;2023-11-21T03:34:24;96452.69;;;20.30;49.35
83183;BME280;73077;49.898;16.450;2023-11-21T03:36:51;96455.13;;;20.32;49.50
83183;BME280;73077;49.898;16.450;2023-11-21T03:39:22;96458.56;;;20.32;49.17
83183;BME280;73077;49.898;16.450;2023-11-21T03:41:48;96464.94;;;20.23;49.29
83183;BME280;73077;49.898;16.450;2023-11-21T03:44:17;96463.41;;;20.29;49.26
83183;BME280;73077;49.898;16.450;2023-11-21T03:46:44;96473.81;;;20.22;49.43
83183;BME280;73077;49.898;16.450;2023-11-21T03:49:11;96474.41;;;20.24;49.37
83183;BME280;73077;49.898;16.450;2023-11-21T03:51:37;96479.53;;;20.26;49.34
83183;BME280;73077;49.898;16.450;2023-11-21T03:54:03;96477.94;;;20.31;49.27
83183;BME280;73077;49.898;16.450;2023-11-21T03:56:29;96479.16;;;20.29;49.13
83183;BME280;73077;49.898;16.450;2023-11-21T03:58:57;96474.28;;;20.26;49.04
83183;BME280;73077;49.898;16.450;2023-11-21T04:01:23;96474.19;;;20.19;49.44
83183;BME280;73077;49.898;16.450;2023-11-21T04:03:51;96476.91;;;20.26;49.56
83183;BME280;73077;49.898;16.450;2023-11-21T04:06:17;96475.41;;;20.44;49.04
83183;BME280;73077;49.898;16.450;2023-11-21T04:08:44;96474.25;;;20.81;48.13
83183;BME280;73077;49.898;16.450;2023-11-21T04:11:10;96484.25;;;21.27;47.04
83183;BME280;73077;49.898;16.450;2023-11-21T04:13:38;96482.81;;;21.78;46.05
83183;BME280;73077;49.898;16.450;2023-11-21T04:16:06;96476.88;;;22.37;44.71
83183;BME280;73077;49.898;16.450;2023-11-21T04:18:33;96478.88;;;22.87;43.53
83183;BME280;73077;49.898;16.450;2023-11-21T04:20:59;96485.09;;;23.25;42.65
83183;BME280;73077;49.898;16.450;2023-11-21T04:23:25;96484.97;;;23.58;42.38
83183;BME280;73077;49.898;16.450;2023-11-21T04:25:50;96488.97;;;23.74;42.10
83183;BME280;73077;49.898;16.450;2023-11-21T04:28:17;96486.66;;;23.90;41.77
83183;BME280;73077;49.898;16.450;2023-11-21T04:30:44;96490.00;;;24.04;41.82
83183;BME280;73077;49.898;16.450;2023-11-21T04:33:10;96485.88;;;24.21;41.46
83183;BME280;73077;49.898;16.450;2023-11-21T04:35:36;96485.34;;;24.37;40.97
83183;BME280;73077;49.898;16.450;2023-11-21T04:38:02;96492.75;;;24.54;41.05
83183;BME280;73077;49.898;16.450;2023-11-21T04:40:28;96483.09;;;24.66;40.89
83183;BME280;73077;49.898;16.450;2023-11-21T04:42:54;96498.00;;;24.78;40.79
83183;BME280;73077;49.898;16.450;2023-11-21T04:45:20;96486.16;;;24.87;40.90
83183;BME280;73077;49.898;16.450;2023-11-21T04:47:46;96490.34;;;24.95;40.95
83183;BME280;73077;49.898;16.450;2023-11-21T04:50:14;96494.41;;;24.97;40.78
83183;BME280;73077;49.898;16.450;2023-11-21T04:52:47;96495.28;;;24.91;41.01
83183;BME280;73077;49.898;16.450;2023-11-21T04:55:14;96497.38;;;24.83;41.31
83183;BME280;73077;49.898;16.450;2023-11-21T04:57:42;96500.28;;;24.75;41.59
83183;BME280;73077;49.898;16.450;2023-11-21T05:00:09;96504.44;;;24.64;41.72
83183;BME280;73077;49.898;16.450;2023-11-21T05:02:35;96494.16;;;24.56;42.10
83183;BME280;73077;49.898;16.450;2023-11-21T05:05:01;96501.72;;;24.46;42.18
83183;BME280;73077;49.898;16.450;2023-11-21T05:07:27;96494.31;;;24.36;42.47
83183;BME280;73077;49.898;16.450;2023-11-21T05:09:57;96494.56;;;24.28;42.66
83183;BME280;73077;49.898;16.450;2023-11-21T05:12:25;96500.91;;;24.21;42.65
83183;BME280;73077;49.898;16.450;2023-11-21T05:14:51;96499.94;;;24.15;43.01
83183;BME280;73077;49.898;16.450;2023-11-21T05:17:17;96495.53;;;24.03;43.05
83183;BME280;73077;49.898;16.450;2023-11-21T05:19:43;96491.91;;;23.97;43.19
83183;BME280;73077;49.898;16.450;2023-11-21T05:22:10;96501.69;;;23.90;43.36
83183;BME280;73077;49.898;16.450;2023-11-21T05:24:37;96494.00;;;23.82;43.30
83183;BME280;73077;49.898;16.450;2023-11-21T05:27:05;96504.81;;;23.74;43.63
83183;BME280;73077;49.898;16.450;2023-11-21T05:29:30;96509.31;;;23.67;43.64
83183;BME280;73077;49.898;16.450;2023-11-21T05:31:56;96503.03;;;23.61;43.83
83183;BME280;73077;49.898;16.450;2023-11-21T05:34:22;96496.78;;;23.56;43.87
83183;BME280;73077;49.898;16.450;2023-11-21T05:36:50;96502.88;;;23.50;43.90
83183;BME280;73077;49.898;16.450;2023-11-21T05:39:16;96500.69;;;23.40;44.00
83183;BME280;73077;49.898;16.450;2023-11-21T05:41:46;96498.63;;;23.35;44.19
83183;BME280;73077;49.898;16.450;2023-11-21T05:44:12;96499.47;;;23.29;44.24
83183;BME280;73077;49.898;16.450;2023-11-21T05:46:40;96514.09;;;23.25;44.57
83183;BME280;73077;49.898;16.450;2023-11-21T05:49:09;96507.59;;;23.21;44.26
83183;BME280;73077;49.898;16.450;2023-11-21T05:51:43;96507.44;;;23.16;44.26
83183;BME280;73077;49.898;16.450;2023-11-21T05:54:15;96520.44;;;23.11;44.44
83183;BME280;73077;49.898;16.450;2023-11-21T05:56:41;96507.03;;;23.06;44.61
83183;BME280;73077;49.898;16.450;2023-11-21T05:59:16;96523.06;;;23.05;44.56
83183;BME280;73077;49.898;16.450;2023-11-21T06:01:47;96513.34;;;22.99;44.59
83183;BME280;73077;49.898;16.450;2023-11-21T06:04:18;96490.25;;;22.74;45.69
83183;BME280;73077;49.898;16.450;2023-11-21T06:06:53;96513.97;;;22.81;45.48
83183;BME280;73077;49.898;16.450;2023-11-21T06:09:21;96520.25;;;22.87;45.17
83183;BME280;73077;49.898;16.450;2023-11-21T06:11:53;96517.41;;;22.82;45.21
83183;BME280;73077;49.898;16.450;2023-11-21T06:14:20;96517.63;;;22.80;45.32
83183;BME280;73077;49.898;16.450;2023-11-21T06:16:47;96519.03;;;22.76;45.32
83183;BME280;73077;49.898;16.450;2023-11-21T06:19:13;96516.41;;;22.69;45.31
83183;BME280;73077;49.898;16.450;2023-11-21T06:21:40;96520.25;;;22.73;45.25
83183;BME280;73077;49.898;16.450;2023-11-21T06:24:07;96520.66;;;22.70;45.08
83183;BME280;73077;49.898;16.450;2023-11-21T06:26:35;96514.59;;;22.70;45.24
83183;BME280;73077;49.898;16.450;2023-11-21T06:29:01;96514.75;;;22.62;45.16
83183;BME280;73077;49.898;16.450;2023-11-21T06:31:32;96526.94;;;22.63;45.10
83183;BME280;73077;49.898;16.450;2023-11-21T06:33:58;96528.75;;;22.56;45.32
83183;BME280;73077;49.898;16.450;2023-11-21T06:36:25;96533.19;;;22.55;45.28
83183;BME280;73077;49.898;16.450;2023-11-21T06:38:53;96535.22;;;22.47;45.49
83183;BME280;73077;49.898;16.450;2023-11-21T06:41:18;96543.53;;;22.44;45.60
83183;BME280;73077;49.898;16.450;2023-11-21T06:43:44;96538.66;;;22.41;45.55
83183;BME280;73077;49.898;16.450;2023-11-21T06:46:13;96548.41;;;22.40;45.44
83183;BME280;73077;49.898;16.450;2023-11-21T06:48:42;96551.84;;;22.34;45.57
83183;BME280;73077;49.898;16.450;2023-11-21T06:51:08;96552.41;;;22.30;45.74
83183;BME280;73077;49.898;16.450;2023-11-21T06:53:36;96552.00;;;22.26;45.84
83183;BME280;73077;49.898;16.450;2023-11-21T06:56:02;96551.78;;;22.21;45.89
83183;BME280;73077;49.898;16.450;2023-11-21T06:58:28;96547.13;;;22.16;45.79
83183;BME280;73077;49.898;16.450;2023-11-21T07:00:53;96548.75;;;22.11;46.04
83183;BME280;73077;49.898;16.450;2023-11-21T07:03:19;96555.22;;;22.08;45.78
83183;BME280;73077;49.898;16.450;2023-11-21T07:05:45;96548.13;;;22.02;46.19
83183;BME280;73077;49.898;16.450;2023-11-21T07:08:11;96546.06;;;21.98;46.38
83183;BME280;73077;49.898;16.450;2023-11-21T07:10:38;96553.19;;;21.97;46.38
83183;BME280;73077;49.898;16.450;2023-11-21T07:13:04;96544.66;;;21.95;46.18
83183;BME280;73077;49.898;16.450;2023-11-21T07:15:29;96553.31;;;21.89;46.22
83183;BME280;73077;49.898;16.450;2023-11-21T07:17:55;96551.44;;;21.83;46.50
83183;BME280;73077;49.898;16.450;2023-11-21T07:20:21;96556.31;;;21.86;46.44
83183;BME280;73077;49.898;16.450;2023-11-21T07:22:46;96560.34;;;21.76;46.65
83183;BME280;73077;49.898;16.450;2023-11-21T07:25:12;96567.91;;;21.92;46.18
83183;BME280;73077;49.898;16.450;2023-11-21T07:27:38;96567.16;;;22.04;45.94
83183;BME280;73077;49.898;16.450;2023-11-21T07:30:04;96566.38;;;22.23;45.34
83183;BME280;73077;49.898;16.450;2023-11-21T07:32:31;96571.28;;;22.40;45.16
83183;BME280;73077;49.898;16.450;2023-11-21T07:34:57;96564.00;;;22.55;44.67
83183;BME280;73077;49.898;16.450;2023-11-21T07:37:25;96563.25;;;22.74;44.29
83183;BME280;73077;49.898;16.450;2023-11-21T07:39:54;96561.41;;;22.94;44.09
83183;BME280;73077;49.898;16.450;2023-11-21T07:42:25;96564.03;;;23.14;43.53
83183;BME280;73077;49.898;16.450;2023-11-21T07:44:53;96557.91;;;23.33;43.27
83183;BME280;73077;49.898;16.450;2023-11-21T07:47:19;96568.44;;;23.53;43.05
83183;BME280;73077;49.898;16.450;2023-11-21T07:49:44;96566.13;;;23.69;42.78
83183;BME280;73077;49.898;16.450;2023-11-21T07:52:10;96575.84;;;23.88;42.56
83183;BME280;73077;49.898;16.450;2023-11-21T07:54:36;96579.22;;;24.02;42.21
83183;BME280;73077;49.898;16.450;2023-11-21T07:57:02;96580.81;;;24.10;42.27
83183;BME280;73077;49.898;16.450;2023-11-21T07:59:29;96583.66;;;24.08;42.14
83183;BME280;73077;49.898;16.450;2023-11-21T08:01:56;96587.53;;;24.06;42.41
83183;BME280;73077;49.898;16.450;2023-11-21T08:04:23;96586.75;;;23.99;42.42
83183;BME280;73077;49.898;16.450;2023-11-21T08:06:49;96585.75;;;23.93;42.60
83183;BME280;73077;49.898;16.450;2023-11-21T08:09:16;96591.69;;;23.88;42.75
83183;BME280;73077;49.898;16.450;2023-11-21T08:11:43;96589.66;;;23.84;42.85
83183;BME280;73077;49.898;16.450;2023-11-21T08:14:08;96594.94;;;23.77;42.95
83183;BME280;73077;49.898;16.450;2023-11-21T08:16:35;96600.03;;;23.72;43.03
83183;BME280;73077;49.898;16.450;2023-11-21T08:19:02;96591.13;;;23.67;43.11
83183;BME280;73077;49.898;16.450;2023-11-21T08:21:28;96605.78;;;23.63;43.25
83183;BME280;73077;49.898;16.450;2023-11-21T08:23:54;96596.84;;;23.57;43.29
83183;BME280;73077;49.898;16.450;2023-11-21T08:26:22;96604.56;;;23.52;43.54
83183;BME280;73077;49.898;16.450;2023-11-21T08:28:48;96606.19;;;23.47;43.64
83183;BME280;73077;49.898;16.450;2023-11-21T08:31:14;96600.97;;;23.40;43.65
83183;BME280;73077;49.898;16.450;2023-11-21T08:33:39;96597.25;;;23.34;43.69
83183;BME280;73077;49.898;16.450;2023-11-21T08:36:08;96598.09;;;23.28;43.93
83183;BME280;73077;49.898;16.450;2023-11-21T08:38:35;96594.84;;;23.26;44.00
83183;BME280;73077;49.898;16.450;2023-11-21T08:41:07;96597.28;;;23.21;43.97
83183;BME280;73077;49.898;16.450;2023-11-21T08:43:35;96589.78;;;23.18;44.22
83183;BME280;73077;49.898;16.450;2023-11-21T08:46:01;96592.22;;;23.13;44.09
83183;BME280;73077;49.898;16.450;2023-11-21T08:48:29;96595.06;;;23.12;44.13
83183;BME280;73077;49.898;16.450;2023-11-21T08:50:55;96600.94;;;23.07;44.16
83183;BME280;73077;49.898;16.450;2023-11-21T08:53:21;96598.53;;;23.06;44.14
83183;BME280;73077;49.898;16.450;2023-11-21T08:55:47;96606.84;;;23.03;44.36
83183;BME280;73077;49.898;16.450;2023-11-21T08:58:13;96606.63;;;22.98;44.27
83183;BME280;73077;49.898;16.450;2023-11-21T09:00:40;96609.06;;;22.99;44.42
83183;BME280;73077;49.898;16.450;2023-11-21T09:03:06;96613.94;;;22.96;44.37
83183;BME280;73077;49.898;16.450;2023-11-21T09:05:37;96604.00;;;22.91;44.35
83183;BME280;73077;49.898;16.450;2023-11-21T09:08:04;96607.88;;;22.89;44.42
83183;BME280;73077;49.898;16.450;2023-11-21T09:10:29;96611.50;;;22.81;44.49
83183;BME280;73077;49.898;16.450;2023-11-21T09:12:57;96615.53;;;22.84;44.45
83183;BME280;73077;49.898;16.450;2023-11-21T09:15:24;96621.22;;;22.80;44.76
83183;BME280;73077;49.898;16.450;2023-11-21T09:17:50;96623.66;;;22.82;44.63
83183;BME280;73077;49.898;16.450;2023-11-21T09:20:17;96616.56;;;22.76;44.62
83183;BME280;73077;49.898;16.450;2023-11-21T09:22:49;96616.75;;;22.74;44.68
83183;BME280;73077;49.898;16.450;2023-11-21T09:25:15;96612.69;;;22.72;44.56
83183;BME280;73077;49.898;16.450;2023-11-21T09:27:42;96620.97;;;22.62;44.81
83183;BME280;73077;49.898;16.450;2023-11-21T09:30:08;96615.91;;;22.61;44.86
83183;BME280;73077;49.898;16.450;2023-11-21T09:32:35;96615.50;;;22.57;45.00
83183;BME280;73077;49.898;16.450;2023-11-21T09:35:06;96614.88;;;22.55;45.01
83183;BME280;73077;49.898;16.450;2023-11-21T09:37:34;96624.00;;;22.53;45.02
83183;BME280;73077;49.898;16.450;2023-11-21T09:39:59;96617.31;;;22.57;44.76
83183;BME280;73077;49.898;16.450;2023-11-21T09:42:30;96616.69;;;22.48;45.03
83183;BME280;73077;49.898;16.450;2023-11-21T09:45:18;96617.50;;;22.42;45.17
83183;BME280;73077;49.898;16.450;2023-11-21T09:47:45;96619.09;;;22.37;45.13
83183;BME280;73077;49.898;16.450;2023-11-21T09:50:17;96625.97;;;22.38;45.25
83183;BME280;73077;49.898;16.450;2023-11-21T09:55:21;96619.09;;;22.37;45.24
83183;BME280;73077;49.898;16.450;2023-11-21T09:57:48;96617.47;;;22.36;45.24
83183;BME280;73077;49.898;16.450;2023-11-21T10:00:15;96621.53;;;22.32;45.18
83183;BME280;73077;49.898;16.450;2023-11-21T10:02:43;96622.53;;;22.31;45.33
83183;BME280;73077;49.898;16.450;2023-11-21T10:05:09;96620.91;;;22.30;45.28
83183;BME280;73077;49.898;16.450;2023-11-21T10:07:40;96612.56;;;22.26;45.32
83183;BME280;73077;49.898;16.450;2023-11-21T10:10:08;96615.63;;;22.23;45.38
83183;BME280;73077;49.898;16.450;2023-11-21T10:12:35;96613.56;;;22.18;45.48
83183;BME280;73077;49.898;16.450;2023-11-21T10:15:02;96623.50;;;22.16;45.45
83183;BME280;73077;49.898;16.450;2023-11-21T10:17:30;96616.59;;;22.15;45.47
83183;BME280;73077;49.898;16.450;2023-11-21T10:20:04;96625.91;;;22.11;45.53
83183;BME280;73077;49.898;16.450;2023-11-21T10:22:40;96623.69;;;22.08;45.53
83183;BME280;73077;49.898;16.450;2023-11-21T10:25:10;96630.16;;;22.06;45.68
83183;BME280;73077;49.898;16.450;2023-11-21T10:27:37;96627.91;;;22.09;45.57
83183;BME280;73077;49.898;16.450;2023-11-21T10:30:08;96628.19;;;22.28;45.26
83183;BME280;73077;49.898;16.450;2023-11-21T10:32:44;96629.25;;;22.46;44.73
83183;BME280;73077;49.898;16.450;2023-11-21T10:35:14;96629.34;;;22.66;44.24
83183;BME280;73077;49.898;16.450;2023-11-21T10:37:41;96633.41;;;22.88;43.96
83183;BME280;73077;49.898;16.450;2023-11-21T10:40:21;96626.50;;;23.13;43.52
83183;BME280;73077;49.898;16.450;2023-11-21T10:42:56;96625.25;;;23.35;43.18
83183;BME280;73077;49.898;16.450;2023-11-21T10:45:38;96627.50;;;23.58;42.71
83183;BME280;73077;49.898;16.450;2023-11-21T10:48:07;96627.06;;;23.74;42.42
83183;BME280;73077;49.898;16.450;2023-11-21T10:50:45;96627.78;;;23.94;42.00
83183;BME280;73077;49.898;16.450;2023-11-21T10:53:15;96626.53;;;24.10;41.71
83183;BME280;73077;49.898;16.450;2023-11-21T10:55:44;96627.88;;;24.26;41.44
83183;BME280;73077;49.898;16.450;2023-11-21T10:58:17;96634.53;;;24.35;41.45
83183;BME280;73077;49.898;16.450;2023-11-21T11:00:45;96629.06;;;24.36;41.53
83183;BME280;73077;49.898;16.450;2023-11-21T11:03:16;96628.91;;;24.31;41.67
83183;BME280;73077;49.898;16.450;2023-11-21T11:05:46;96628.91;;;24.25;41.69
83183;BME280;73077;49.898;16.450;2023-11-21T11:08:27;96627.94;;;24.19;41.93
83183;BME280;73077;49.898;16.450;2023-11-21T11:10:53;96625.13;;;24.14;42.05
83183;BME280;73077;49.898;16.450;2023-11-21T11:13:20;96629.34;;;24.09;42.41
83183;BME280;73077;49.898;16.450;2023-11-21T11:15:48;96626.75;;;24.02;42.39
83183;BME280;73077;49.898;16.450;2023-11-21T11:18:18;96632.88;;;23.96;42.48
83183;BME280;73077;49.898;16.450;2023-11-21T11:20:49;96624.34;;;23.94;42.58
83183;BME280;73077;49.898;16.450;2023-11-21T11:29:59;96630.91;;;23.72;42.97
83183;BME280;73077;49.898;16.450;2023-11-21T11:32:55;96632.75;;;23.65;43.16
83183;BME280;73077;49.898;16.450;2023-11-21T11:38:08;96633.81;;;23.57;43.17
83183;BME280;73077;49.898;16.450;2023-11-21T11:40:47;96637.84;;;23.47;43.47
83183;BME280;73077;49.898;16.450;2023-11-21T11:43:25;96639.69;;;23.46;43.56
83183;BME280;73077;49.898;16.450;2023-11-21T11:45:59;96639.91;;;23.38;43.50
83183;BME280;73077;49.898;16.450;2023-11-21T11:48:29;96638.69;;;23.34;43.59
83183;BME280;73077;49.898;16.450;2023-11-21T11:51:14;96628.94;;;23.28;43.67
83183;BME280;73077;49.898;16.450;2023-11-21T11:53:48;96639.06;;;23.24;43.85
83183;BME280;73077;49.898;16.450;2023-11-21T11:56:31;96635.22;;;23.20;43.84
83183;BME280;73077;49.898;16.450;2023-11-21T11:59:06;96636.66;;;23.16;43.91
83183;BME280;73077;49.898;16.450;2023-11-21T12:01:36;96632.38;;;23.15;43.99
83183;BME280;73077;49.898;16.450;2023-11-21T12:06:54;96629.34;;;23.05;43.98
83183;BME280;73077;49.898;16.450;2023-11-21T12:09:24;96632.41;;;23.02;44.19
83183;BME280;73077;49.898;16.450;2023-11-21T12:12:01;96633.19;;;22.96;44.09
83183;BME280;73077;49.898;16.450;2023-11-21T12:14:28;96628.75;;;22.97;44.11
83183;BME280;73077;49.898;16.450;2023-11-21T12:16:58;96635.81;;;22.90;44.29
83183;BME280;73077;49.898;16.450;2023-11-21T12:19:33;96633.00;;;22.91;44.26
83183;BME280;73077;49.898;16.450;2023-11-21T12:22:12;96635.22;;;22.88;44.63
83183;BME280;73077;49.898;16.450;2023-11-21T12:24:43;96640.09;;;22.84;44.29
83183;BME280;73077;49.898;16.450;2023-11-21T12:27:11;96639.09;;;22.85;44.27
83183;BME280;73077;49.898;16.450;2023-11-21T12:29:42;96642.31;;;22.80;44.39
83183;BME280;73077;49.898;16.450;2023-11-21T12:32:10;96632.16;;;22.77;44.53
83183;BME280;73077;49.898;16.450;2023-11-21T12:34:37;96638.66;;;22.75;44.27
83183;BME280;73077;49.898;16.450;2023-11-21T12:37:07;96635.81;;;22.70;44.43
83183;BME280;73077;49.898;16.450;2023-11-21T12:39:36;96634.00;;;22.70;44.46
83183;BME280;73077;49.898;16.450;2023-11-21T12:42:05;96625.47;;;22.68;44.65
83183;BME280;73077;49.898;16.450;2023-11-21T12:44:38;96631.97;;;22.66;44.59
83183;BME280;73077;49.898;16.450;2023-11-21T12:47:07;96628.25;;;22.60;44.81
83183;BME280;73077;49.898;16.450;2023-11-21T12:49:37;96639.22;;;22.57;44.66
83183;BME280;73077;49.898;16.450;2023-11-21T12:52:07;96635.94;;;22.55;44.75
83183;BME280;73077;49.898;16.450;2023-11-21T12:54:38;96636.16;;;22.54;44.62
83183;BME280;73077;49.898;16.450;2023-11-21T12:57:07;96630.88;;;22.47;44.82
83183;BME280;73077;49.898;16.450;2023-11-21T12:59:33;96635.97;;;22.49;44.95
83183;BME280;73077;49.898;16.450;2023-11-21T13:02:02;96637.75;;;22.42;44.94
83183;BME280;73077;49.898;16.450;2023-11-21T13:04:32;96634.50;;;22.40;45.04
83183;BME280;73077;49.898;16.450;2023-11-21T13:07:04;96632.28;;;22.37;45.13
83183;BME280;73077;49.898;16.450;2023-11-21T13:09:40;96644.19;;;22.33;45.17